Time;durP1;ratioP1;P1;durP2;ratioP2;P2;SDS_P1;SDS_P2;PMS_P1;PMS_P2;Temp;Humidity;BMP_temperature;BMP_pressure;BME280_temperature;BME280_humidity;BME280_pressure;Samples;Min_cycle;Max_cycle;Signal;HPM_P1;HPM_P2
2022/01/22 00:01:04;;;;;;;27.05;14.73;;;3.90;99.90;;;;;;5046612;28;20033;-75
2022/01/22 00:03:35;;;;;;;31.60;15.10;;;3.70;99.90;;;;;;5030053;28;20143;-77
2022/01/22 00:06:03;;;;;;;31.08;15.90;;;3.60;99.90;;;;;;5046417;28;20077;-75
2022/01/22 00:08:31;;;;;;;34.95;17.95;;;3.40;99.90;;;;;;5063466;28;20060;-77
2022/01/22 00:10:58;;;;;;;42.65;18.83;;;3.40;99.90;;;;;;5048126;28;20104;-77
2022/01/22 00:16:12;;;;;;;29.30;16.77;;;3.30;99.90;;;;;;5045868;28;20045;-76
2022/01/22 00:18:40;;;;;;;27.75;16.63;;;3.20;99.90;;;;;;5050119;28;20063;-76
2022/01/22 00:21:08;;;;;;;27.13;15.68;;;3.10;99.90;;;;;;5048005;28;20045;-76
2022/01/22 00:23:39;;;;;;;31.50;16.00;;;3.00;99.90;;;;;;5047302;28;20096;-76
2022/01/22 00:26:06;;;;;;;31.48;16.42;;;3.00;99.90;;;;;;5061049;28;20044;-77
2022/01/22 00:28:34;;;;;;;27.40;14.50;;;2.90;99.90;;;;;;5045102;28;20065;-77
2022/01/22 00:31:02;;;;;;;31.90;16.17;;;2.80;99.90;;;;;;5061557;28;20393;-76
2022/01/22 00:33:30;;;;;;;36.10;18.95;;;2.80;99.90;;;;;;5046367;28;20053;-76
2022/01/22 00:35:57;;;;;;;37.47;18.70;;;2.80;99.90;;;;;;5045766;28;20041;-76
2022/01/22 00:38:25;;;;;;;38.20;18.00;;;2.70;99.90;;;;;;5045264;28;20053;-76
2022/01/22 00:40:53;;;;;;;34.97;18.10;;;2.60;99.90;;;;;;5044894;28;20041;-77
2022/01/22 00:43:21;;;;;;;37.78;19.95;;;2.60;99.90;;;;;;5028186;28;20048;-76
2022/01/22 00:45:49;;;;;;;33.63;17.48;;;2.60;99.90;;;;;;5046617;28;20323;-76
2022/01/22 00:48:17;;;;;;;;;;;2.60;99.90;;;;;;5046773;28;20056;-77
2022/01/22 00:50:45;;;;;;;;;;;2.50;99.90;;;;;;5046490;28;20384;-77
2022/01/22 00:53:13;;;;;;;34.22;16.45;;;2.50;99.90;;;;;;5024873;28;19921;-76
2022/01/22 00:55:40;;;;;;;33.50;17.98;;;2.50;99.90;;;;;;5025470;28;20064;-76
2022/01/22 00:58:08;;;;;;;37.70;18.77;;;2.50;99.90;;;;;;5042103;28;20054;-76
2022/01/22 01:00:36;;;;;;;34.42;16.55;;;2.40;99.90;;;;;;5026640;28;20057;-75
2022/01/22 01:03:04;;;;;;;32.47;17.65;;;2.40;99.90;;;;;;5042814;28;20057;-76
2022/01/22 01:05:33;;;;;;;35.45;17.45;;;2.40;99.90;;;;;;5027800;28;20081;-76
2022/01/22 01:08:02;;;;;;;40.70;17.48;;;2.40;99.90;;;;;;5043995;28;20045;-76
2022/01/22 01:10:30;;;;;;;34.45;17.50;;;2.40;99.90;;;;;;5046919;28;20063;-76
2022/01/22 01:12:58;;;;;;;33.45;17.48;;;2.30;99.90;;;;;;5043408;28;20057;-76
2022/01/22 01:15:55;;;;;;;32.33;17.27;;;2.30;99.90;;;;;;5045570;28;20045;-76
2022/01/22 01:32:18;;;;;;;32.08;17.17;;;2.10;99.90;;;;;;5061771;28;20657;-77
2022/01/22 01:34:50;;;;;;;35.60;17.77;;;2.10;99.90;;;;;;5061802;28;20052;-76
2022/01/22 01:37:19;;;;;;;34.00;17.95;;;2.10;99.90;;;;;;5029175;28;20048;-76
2022/01/22 01:39:51;;;;;;;34.20;17.50;;;2.20;99.90;;;;;;5028453;28;20052;-75
2022/01/22 01:42:29;;;;;;;31.83;17.50;;;2.30;99.90;;;;;;5045630;28;20674;-75
2022/01/22 01:45:00;;;;;;;30.75;17.58;;;2.10;99.90;;;;;;5044638;28;20044;-76
2022/01/22 01:47:48;;;;;;;30.55;16.73;;;2.10;99.90;;;;;;5032315;28;20499;-76
2022/01/22 01:50:16;;;;;;;31.52;16.70;;;2.20;99.90;;;;;;5045514;28;20053;-76
2022/01/22 01:52:53;;;;;;;30.25;17.45;;;2.10;99.90;;;;;;5045780;28;20484;-76
2022/01/22 01:55:34;;;;;;;34.60;17.52;;;2.10;99.90;;;;;;5045611;28;20048;-76
2022/01/22 01:58:16;;;;;;;34.08;17.70;;;2.10;99.90;;;;;;5045024;28;20064;-77
2022/01/22 02:00:44;;;;;;;34.47;18.45;;;2.00;99.90;;;;;;5044869;28;20063;-77
2022/01/22 02:03:13;;;;;;;35.08;18.83;;;2.10;99.90;;;;;;5046108;28;20040;-77
2022/01/22 02:05:48;;;;;;;34.72;18.63;;;2.10;99.90;;;;;;5028296;28;20049;-77
2022/01/22 02:08:17;;;;;;;31.88;18.30;;;2.10;99.90;;;;;;5043802;28;20064;-77
2022/01/22 02:10:58;;;;;;;36.53;18.13;;;2.10;99.90;;;;;;5040836;28;20568;-77
2022/01/22 02:25:18;;;;;;;31.10;17.80;;;2.00;99.90;;;;;;5026826;28;20045;-76
2022/01/22 02:27:46;;;;;;;39.40;17.77;;;2.00;99.90;;;;;;5043600;28;20426;-77
2022/01/22 02:30:23;;;;;;;30.60;17.83;;;2.10;99.90;;;;;;5012047;28;20051;-76
2022/01/22 02:35:51;;;;;;;31.08;17.77;;;2.00;99.90;;;;;;5028283;28;20069;-77
2022/01/22 02:38:27;;;;;;;27.63;15.80;;;2.10;99.90;;;;;;5029774;28;20070;-77
2022/01/22 02:40:55;;;;;;;33.25;17.15;;;1.90;99.90;;;;;;5046911;28;20059;-77
2022/01/22 02:43:24;;;;;;;30.20;16.55;;;1.80;99.90;;;;;;5048118;28;20671;-77
2022/01/22 02:45:53;;;;;;;30.92;17.45;;;1.80;99.90;;;;;;5031394;28;20076;-76
2022/01/22 02:48:21;;;;;;;37.67;18.45;;;1.70;99.90;;;;;;5051428;28;20041;-76
2022/01/22 02:50:49;;;;;;;33.40;19.17;;;1.70;99.90;;;;;;5053583;28;20041;-76
2022/01/22 02:53:17;;;;;;;36.17;18.73;;;1.80;99.90;;;;;;5052411;28;20064;-76
2022/01/22 02:55:45;;;;;;;;;;;1.70;99.90;;;;;;5050720;28;20492;-76
2022/01/22 02:58:14;;;;;;;31.15;16.10;;;1.60;99.90;;;;;;5064772;28;19921;-76
2022/01/22 03:00:42;;;;;;;39.70;19.13;;;1.60;99.90;;;;;;5047915;28;20563;-76
2022/01/22 03:03:11;;;;;;;34.25;18.83;;;1.50;99.90;;;;;;5030932;28;20685;-76
2022/01/22 03:05:39;;;;;;;34.65;17.88;;;1.50;99.90;;;;;;5056895;28;20041;-76
2022/01/22 03:08:09;;;;;;;38.70;17.55;;;1.50;99.90;;;;;;5048852;28;20401;-76
2022/01/22 03:10:39;;;;;;;36.17;18.85;;;1.40;99.90;;;;;;5046945;28;20382;-76
2022/01/22 03:13:21;;;;;;;32.33;18.35;;;1.40;99.90;;;;;;5046942;28;20523;-76
2022/01/22 03:16:03;;;;;;;31.10;17.48;;;1.30;99.90;;;;;;5047986;28;20507;-75
2022/01/22 03:21:42;;;;;;;33.38;18.50;;;1.20;99.90;;;;;;5015470;28;20466;-76
2022/01/22 03:29:43;;;;;;;37.80;18.73;;;1.20;99.90;;;;;;5051532;28;20045;-76
2022/01/22 03:32:12;;;;;;;32.78;18.08;;;1.10;99.90;;;;;;5052087;28;20397;-77
2022/01/22 03:34:48;;;;;;;40.67;20.85;;;1.00;99.90;;;;;;5048632;28;20476;-76
2022/01/22 03:37:16;;;;;;;40.15;19.60;;;1.00;99.90;;;;;;5031026;28;20421;-76
2022/01/22 03:39:44;;;;;;;42.25;19.55;;;1.00;99.90;;;;;;5055366;28;20492;-75
2022/01/22 03:42:12;;;;;;;43.05;20.85;;;1.00;99.90;;;;;;5031164;28;20040;-76
2022/01/22 03:44:39;;;;;;;38.65;19.70;;;0.90;99.90;;;;;;5047400;28;20049;-76
2022/01/22 03:47:07;;;;;;;38.85;19.85;;;0.90;99.90;;;;;;5033396;28;20049;-75
2022/01/22 03:49:36;;;;;;;35.22;17.70;;;0.90;99.90;;;;;;5050929;28;20050;-75
2022/01/22 03:52:06;;;;;;;29.92;17.63;;;0.90;99.90;;;;;;5050391;28;20869;-74
2022/01/22 03:54:34;;;;;;;35.33;17.83;;;0.80;99.90;;;;;;5048630;28;20049;-75
2022/01/22 03:57:03;;;;;;;40.65;19.60;;;0.70;99.90;;;;;;5045642;28;20060;-75
2022/01/22 03:59:36;;;;;;;43.70;20.80;;;0.70;99.90;;;;;;5044917;28;20036;-76
2022/01/22 04:04:48;;;;;;;35.40;19.38;;;0.70;99.90;;;;;;5047466;28;20053;-75
2022/01/22 04:09:45;;;;;;;32.95;17.65;;;0.70;99.90;;;;;;5046774;28;20060;-74
2022/01/22 04:12:18;;;;;;;31.45;18.08;;;0.70;99.90;;;;;;5048911;28;20056;-74
2022/01/22 04:14:51;;;;;;;38.78;19.92;;;0.80;99.90;;;;;;5049484;28;20059;-75
2022/01/22 04:17:38;;;;;;;32.90;17.63;;;0.80;99.90;;;;;;5028748;28;20056;-74
2022/01/22 04:25:43;;;;;;;36.00;18.23;;;0.90;99.90;;;;;;5026038;28;20477;-76
2022/01/22 04:28:12;;;;;;;34.35;19.05;;;1.00;99.90;;;;;;5043118;28;20060;-76
2022/01/22 04:30:40;;;;;;;34.25;18.52;;;1.00;99.90;;;;;;5011114;28;20049;-76
2022/01/22 04:33:08;;;;;;;41.85;20.27;;;1.10;99.90;;;;;;5027404;28;20045;-77
2022/01/22 04:35:35;;;;;;;34.72;20.27;;;1.20;99.90;;;;;;5025880;28;20049;-76
2022/01/22 04:38:04;;;;;;;34.58;19.08;;;1.20;99.90;;;;;;5026150;28;20053;-76
2022/01/22 04:40:32;;;;;;;36.13;19.85;;;1.30;99.90;;;;;;5043590;28;20040;-76
2022/01/22 04:43:02;;;;;;;38.20;19.00;;;1.30;99.90;;;;;;5062572;28;20053;-77
2022/01/22 04:48:25;;;;;;;34.85;19.63;;;1.50;99.90;;;;;;5061488;28;20045;-77
2022/01/22 04:56:37;;;;;;;35.38;20.60;;;1.60;99.90;;;;;;5038751;28;20060;-77
2022/01/22 04:59:04;;;;;;;31.80;19.40;;;1.70;99.90;;;;;;5046050;28;20060;-77
2022/01/22 05:01:32;;;;;;;34.00;19.02;;;1.80;99.90;;;;;;5047342;28;20044;-77
2022/01/22 05:04:17;;;;;;;35.55;19.90;;;1.80;99.90;;;;;;5045649;28;20631;-76
2022/01/22 05:07:11;;;;;;;30.58;18.17;;;1.90;99.90;;;;;;5045902;28;20742;-77
2022/01/22 05:10:08;;;;;;;37.72;19.45;;;1.90;99.90;;;;;;5041966;28;20386;-77
2022/01/22 05:12:37;;;;;;;28.67;18.73;;;2.00;99.90;;;;;;5028683;28;20400;-77
2022/01/22 05:15:06;;;;;;;29.48;17.90;;;2.00;99.90;;;;;;5044955;28;20802;-77
2022/01/22 05:17:38;;;;;;;26.70;15.27;;;2.10;99.90;;;;;;5045071;28;20491;-77
2022/01/22 05:25:18;;;;;;;30.13;20.02;;;2.10;99.90;;;;;;5044418;28;20049;-78
2022/01/22 05:36:54;;;;;;;31.17;18.13;;;2.30;99.90;;;;;;5044426;28;20060;-77
2022/01/22 05:39:21;;;;;;;27.88;16.23;;;2.40;99.90;;;;;;5044234;28;20053;-76
2022/01/22 05:41:49;;;;;;;29.13;17.48;;;2.50;99.90;;;;;;5045133;28;20049;-77
2022/01/22 05:44:18;;;;;;;26.40;17.42;;;2.50;99.90;;;;;;5028614;28;20044;-76
2022/01/22 05:46:45;;;;;;;29.92;18.40;;;2.60;99.90;;;;;;5045852;28;20045;-77
2022/01/22 05:49:13;;;;;;;25.23;16.30;;;2.50;99.90;;;;;;5043165;28;20045;-77
2022/01/22 05:51:44;;;;;;;27.48;17.30;;;2.60;99.90;;;;;;5043053;28;20060;-77
2022/01/22 05:54:32;;;;;;;26.25;16.65;;;2.70;99.90;;;;;;5043554;28;20049;-77
2022/01/22 05:59:47;;;;;;;23.77;15.35;;;2.70;99.90;;;;;;5037016;28;20045;-76
2022/01/22 06:02:18;;;;;;;25.77;17.08;;;2.70;99.90;;;;;;5041801;28;20044;-77
2022/01/22 06:04:53;;;;;;;28.03;17.33;;;2.80;99.90;;;;;;5040469;28;20041;-76
2022/01/22 06:07:22;;;;;;;30.75;17.85;;;2.90;99.90;;;;;;5044483;28;20052;-77
2022/01/22 06:10:39;;;;;;;30.48;16.88;;;2.80;99.90;;;;;;5058519;28;20041;-77
2022/01/22 06:12:45;;;;;;;27.83;17.45;;;2.80;99.90;;;;;;5033043;28;20420;-77
2022/01/22 06:15:18;;;;;;;;;;;2.90;99.90;;;;;;5043524;28;20052;-76
2022/01/22 06:18:18;;;;;;;31.15;16.90;;;2.90;99.90;;;;;;5031801;28;19922;-77
2022/01/22 06:20:49;;;;;;;29.20;17.05;;;2.90;99.90;;;;;;5043817;28;20052;-77
2022/01/22 06:23:18;;;;;;;29.35;17.98;;;2.90;99.90;;;;;;5027114;28;20076;-77
2022/01/22 06:25:47;;;;;;;28.75;17.40;;;3.00;99.90;;;;;;5047596;28;20045;-77
2022/01/22 06:28:15;;;;;;;25.73;17.65;;;3.00;99.90;;;;;;5049499;28;20056;-76
2022/01/22 06:30:46;;;;;;;27.08;18.27;;;3.00;99.90;;;;;;5047669;28;20049;-77
2022/01/22 06:33:14;;;;;;;26.15;17.63;;;3.00;99.90;;;;;;5049361;28;20492;-77
2022/01/22 06:35:42;;;;;;;;;;;3.20;99.90;;;;;;5033614;28;20053;-77
2022/01/22 06:38:10;;;;;;;32.13;17.13;;;3.10;99.90;;;;;;5049754;28;19935;-77
2022/01/22 06:44:24;;;;;;;24.75;16.23;;;3.20;99.90;;;;;;5011158;28;20050;-77
2022/01/22 06:47:12;;;;;;;25.92;17.42;;;3.20;99.90;;;;;;4995801;28;20058;-77
2022/01/22 06:49:58;;;;;;;30.15;18.95;;;3.20;99.90;;;;;;5023929;28;20061;-77
2022/01/22 06:52:45;;;;;;;25.58;17.58;;;3.20;99.90;;;;;;5032258;28;20034;-77
2022/01/22 06:55:39;;;;;;;29.05;19.52;;;3.20;99.90;;;;;;5010572;28;20046;-77
2022/01/22 06:58:08;;;;;;;27.00;17.80;;;3.20;99.90;;;;;;5027483;28;20053;-76
2022/01/22 07:00:38;;;;;;;28.92;18.33;;;3.30;99.90;;;;;;5028176;28;20041;-77
2022/01/22 07:03:18;;;;;;;27.55;18.10;;;3.30;99.90;;;;;;5047079;28;20046;-77
2022/01/22 07:05:52;;;;;;;27.10;18.38;;;3.30;99.90;;;;;;5028239;28;20049;-75
2022/01/22 07:08:22;;;;;;;26.50;18.75;;;3.30;99.90;;;;;;5031080;28;20048;-76
2022/01/22 07:10:56;;;;;;;26.77;17.88;;;3.20;99.90;;;;;;5048375;28;20041;-75
2022/01/22 07:13:24;;;;;;;28.63;18.25;;;3.30;99.90;;;;;;5046922;28;20393;-76
2022/01/22 07:15:55;;;;;;;24.73;16.42;;;3.30;99.90;;;;;;5034123;28;20045;-76
2022/01/22 07:18:23;;;;;;;27.83;19.38;;;3.30;99.90;;;;;;5033333;28;20045;-75
2022/01/22 07:20:52;;;;;;;30.08;19.55;;;3.30;99.90;;;;;;5046152;28;20045;-75
2022/01/22 07:25:54;;;;;;;30.73;19.58;;;3.30;99.90;;;;;;5046194;28;20052;-75
2022/01/22 07:28:31;;;;;;;28.80;19.03;;;3.30;99.90;;;;;;5046812;28;20055;-75
2022/01/22 07:31:00;;;;;;;29.67;20.08;;;3.40;99.90;;;;;;5046926;28;20512;-74
2022/01/22 07:33:31;;;;;;;30.25;19.08;;;3.40;99.90;;;;;;5063876;28;20045;-75
2022/01/22 07:36:00;;;;;;;28.80;20.30;;;3.30;99.90;;;;;;5047019;28;20053;-76
2022/01/22 07:38:27;;;;;;;;;;;3.40;99.90;;;;;;5032812;28;20056;-76
2022/01/22 07:40:56;;;;;;;29.58;19.60;;;3.40;99.90;;;;;;5031947;28;20300;-75
2022/01/22 07:43:30;;;;;;;31.55;21.02;;;3.40;99.90;;;;;;5047901;28;20060;-76
2022/01/22 07:46:16;;;;;;;27.48;18.52;;;3.40;99.90;;;;;;5048348;28;20579;-75
2022/01/22 07:48:50;;;;;;;31.45;19.33;;;3.40;99.90;;;;;;5047134;28;20044;-76
2022/01/22 07:51:20;;;;;;;32.53;20.00;;;3.40;99.90;;;;;;5048486;28;20041;-76
2022/01/22 07:53:50;;;;;;;30.83;20.17;;;3.50;99.90;;;;;;5046866;28;20508;-75
2022/01/22 07:56:21;;;;;;;31.17;19.55;;;3.50;99.90;;;;;;5030873;28;20045;-75
2022/01/22 07:58:49;;;;;;;;;;;3.50;99.90;;;;;;5045238;28;20111;-75
2022/01/22 08:01:17;;;;;;;34.72;20.15;;;3.50;99.90;;;;;;5062598;28;19931;-75
2022/01/22 08:04:05;;;;;;;35.72;21.75;;;3.50;99.90;;;;;;5048253;28;20060;-78
2022/01/22 08:06:53;;;;;;;33.03;20.92;;;3.60;99.90;;;;;;5034203;28;20111;-74
2022/01/22 08:09:39;;;;;;;34.28;21.10;;;3.60;99.90;;;;;;5040925;28;20049;-75
2022/01/22 08:12:23;;;;;;;34.55;21.23;;;3.60;99.90;;;;;;5045323;28;20048;-75
2022/01/22 08:14:55;;;;;;;30.48;20.13;;;3.50;99.90;;;;;;5021824;28;20405;-75
2022/01/22 08:17:23;;;;;;;33.63;21.02;;;3.60;99.90;;;;;;5049653;28;20049;-76
2022/01/22 08:19:57;;;;;;;;;;;3.60;99.90;;;;;;5025693;28;20053;-76
2022/01/22 08:22:48;;;;;;;30.45;20.30;;;3.60;99.90;;;;;;5045778;28;19921;-76
2022/01/22 08:25:37;;;;;;;37.55;22.58;;;3.80;99.90;;;;;;5046379;28;20064;-75
2022/01/22 08:31:38;;;;;;;31.55;21.58;;;3.70;99.90;;;;;;5042609;28;20045;-76
2022/01/22 08:36:56;;;;;;;32.47;21.73;;;3.80;99.90;;;;;;5035009;28;20539;-75
2022/01/22 08:39:26;;;;;;;34.90;21.63;;;3.80;99.90;;;;;;5044118;28;20049;-76
2022/01/22 08:41:55;;;;;;;33.00;22.15;;;3.80;99.90;;;;;;5045767;28;20366;-76
2022/01/22 08:44:24;;;;;;;31.25;21.40;;;3.90;99.90;;;;;;5043721;28;20053;-76
2022/01/22 08:46:53;;;;;;;34.42;22.17;;;3.90;99.90;;;;;;5044156;28;20041;-76
2022/01/22 08:49:22;;;;;;;32.67;22.77;;;4.00;99.90;;;;;;5043101;28;20044;-75
2022/01/22 08:52:08;;;;;;;35.80;23.45;;;4.00;99.90;;;;;;5045983;28;20383;-75
2022/01/22 08:54:37;;;;;;;35.10;23.13;;;4.10;99.90;;;;;;5054161;28;20052;-76
2022/01/22 08:57:05;;;;;;;32.15;21.95;;;4.10;99.90;;;;;;5037753;28;20045;-76
2022/01/22 08:59:39;;;;;;;36.08;21.58;;;4.20;99.90;;;;;;5042527;28;20111;-77
2022/01/22 09:02:08;;;;;;;32.22;20.88;;;4.20;99.90;;;;;;5041581;28;20389;-77
2022/01/22 09:04:56;;;;;;;33.47;20.75;;;4.30;99.90;;;;;;5022373;28;20056;-77
2022/01/22 09:07:50;;;;;;;36.47;21.70;;;4.30;99.90;;;;;;5036298;28;20064;-76
2022/01/22 09:10:38;;;;;;;;;;;4.40;99.90;;;;;;5030078;28;20069;-76
2022/01/22 09:13:11;;;;;;;30.83;21.25;;;4.40;99.90;;;;;;4993454;28;19925;-76
2022/01/22 09:15:53;;;;;;;35.58;21.52;;;4.50;99.90;;;;;;5024016;28;20049;-76
2022/01/22 09:18:23;;;;;;;28.30;20.67;;;4.50;99.90;;;;;;5024722;28;20064;-76
2022/01/22 09:23:20;;;;;;;31.58;20.67;;;4.60;99.90;;;;;;5025999;28;20057;-77
2022/01/22 09:25:49;;;;;;;31.33;21.52;;;4.70;99.90;;;;;;5033184;28;20047;-76
2022/01/22 09:28:21;;;;;;;30.00;21.23;;;4.70;99.90;;;;;;5041969;28;20452;-76
2022/01/22 09:30:53;;;;;;;32.08;21.85;;;4.70;99.90;;;;;;5046081;28;20048;-77
2022/01/22 09:33:21;;;;;;;32.72;21.40;;;4.80;99.90;;;;;;5024197;28;20049;-80
2022/01/22 09:36:03;;;;;;;31.80;21.42;;;4.80;99.90;;;;;;5023635;28;20064;-77
2022/01/22 09:38:43;;;;;;;30.70;21.92;;;4.90;99.90;;;;;;5022553;28;20052;-77
2022/01/22 09:41:30;;;;;;;33.83;22.70;;;5.00;99.90;;;;;;5025111;28;20069;-77
2022/01/22 09:44:30;;;;;;;30.63;23.10;;;5.00;99.90;;;;;;5024146;28;20070;-77
2022/01/22 09:47:20;;;;;;;30.77;22.40;;;5.00;99.90;;;;;;5024168;28;20045;-76
2022/01/22 09:50:05;;;;;;;26.98;21.13;;;5.20;99.90;;;;;;5022872;28;20433;-76
2022/01/22 09:52:49;;;;;;;28.38;21.40;;;5.10;99.90;;;;;;5033555;28;20119;-80
2022/01/22 09:55:22;;;;;;;28.48;21.80;;;5.20;99.90;;;;;;5044577;28;20814;-80
2022/01/22 09:58:16;;;;;;;29.88;20.73;;;5.20;99.90;;;;;;5053108;28;20080;-80
2022/01/22 10:01:23;;;;;;;24.85;19.42;;;5.30;99.90;;;;;;5034779;28;20515;-79
2022/01/22 10:03:54;;;;;;;25.95;20.08;;;5.30;99.90;;;;;;5050154;28;20052;-79
2022/01/22 10:06:53;;;;;;;24.60;18.55;;;5.40;99.90;;;;;;5048603;28;20067;-79
2022/01/22 10:10:04;;;;;;;23.67;18.77;;;5.30;99.90;;;;;;5037110;28;20060;-80
2022/01/22 10:12:44;;;;;;;27.55;20.80;;;5.40;99.90;;;;;;5045836;28;20465;-80
2022/01/22 10:15:35;;;;;;;25.02;19.08;;;5.50;99.90;;;;;;5038596;28;20037;-79
2022/01/22 10:18:17;;;;;;;25.48;19.83;;;5.50;99.90;;;;;;5044338;28;20068;-80
2022/01/22 10:20:45;;;;;;;27.80;19.83;;;5.50;99.90;;;;;;5050124;28;20052;-80
2022/01/22 10:23:23;;;;;;;25.02;18.42;;;5.60;99.90;;;;;;5049244;28;20509;-80
2022/01/22 10:26:02;;;;;;;28.45;18.77;;;5.60;99.90;;;;;;5050100;28;20539;-80
2022/01/22 10:28:43;;;;;;;32.85;19.63;;;5.60;99.90;;;;;;5050339;28;20477;-80
2022/01/22 10:31:18;;;;;;;24.42;18.42;;;5.70;99.90;;;;;;5032896;28;20397;-80
2022/01/22 10:34:15;;;;;;;27.42;18.95;;;5.70;99.90;;;;;;5051633;28;20093;-79
2022/01/22 10:37:04;;;;;;;23.58;17.40;;;5.70;99.90;;;;;;5053808;28;20496;-78
2022/01/22 10:39:45;;;;;;;24.38;18.30;;;5.70;99.90;;;;;;5048098;28;20041;-79
2022/01/22 10:42:22;;;;;;;24.83;18.90;;;5.70;99.90;;;;;;5045482;28;20037;-79
2022/01/22 10:44:51;;;;;;;26.60;19.67;;;5.70;99.90;;;;;;5043750;28;20053;-79
2022/01/22 10:47:26;;;;;;;26.88;18.35;;;5.70;99.90;;;;;;5044229;28;20045;-79
2022/01/22 10:49:53;;;;;;;27.23;19.33;;;5.80;99.90;;;;;;5049485;28;20052;-79
2022/01/22 10:52:21;;;;;;;23.15;18.33;;;5.80;99.90;;;;;;5024700;28;20053;-79
2022/01/22 10:55:00;;;;;;;26.33;19.23;;;5.80;99.90;;;;;;5046816;28;20037;-78
2022/01/22 10:57:28;;;;;;;25.13;19.35;;;5.80;99.90;;;;;;5048427;28;20503;-79
2022/01/22 10:59:56;;;;;;;26.27;19.48;;;5.90;99.90;;;;;;5036162;28;20468;-79
2022/01/22 11:02:33;;;;;;;23.08;18.58;;;5.90;99.90;;;;;;5045758;28;20396;-77
2022/01/22 11:05:01;;;;;;;27.85;19.30;;;5.90;99.90;;;;;;5028373;28;20053;-79
2022/01/22 11:07:29;;;;;;;30.23;20.40;;;6.00;99.90;;;;;;5047749;28;20037;-80
2022/01/22 11:10:03;;;;;;;26.38;20.38;;;5.90;99.90;;;;;;5044693;28;20068;-78
2022/01/22 11:12:31;;;;;;;29.55;20.75;;;6.00;99.90;;;;;;5048704;28;20057;-79
2022/01/22 11:14:58;;;;;;;29.35;21.75;;;6.00;99.90;;;;;;5049486;28;20056;-79
2022/01/22 11:17:32;;;;;;;26.88;20.15;;;6.10;99.90;;;;;;5049611;28;20048;-78
2022/01/22 11:20:01;;;;;;;27.08;20.65;;;6.10;99.90;;;;;;5043936;28;20056;-79
2022/01/22 11:22:30;;;;;;;26.70;21.50;;;6.10;99.90;;;;;;5050194;28;20063;-81
2022/01/22 11:24:59;;;;;;;26.02;20.83;;;6.20;99.90;;;;;;5032182;28;20092;-76
2022/01/22 11:27:28;;;;;;;27.17;21.45;;;6.20;99.90;;;;;;5051449;28;20049;-77
2022/01/22 11:30:05;;;;;;;28.58;21.63;;;6.20;99.90;;;;;;5042689;28;20046;-79
2022/01/22 11:32:48;;;;;;;27.02;20.52;;;6.20;99.90;;;;;;5039274;28;20045;-76
2022/01/22 11:35:22;;;;;;;27.95;21.23;;;6.20;99.90;;;;;;5046836;28;20053;-76
2022/01/22 11:38:04;;;;;;;27.83;21.20;;;6.30;99.90;;;;;;5042810;28;20041;-76
2022/01/22 11:40:33;;;;;;;28.83;21.92;;;6.30;99.90;;;;;;5045891;28;20052;-75
2022/01/22 11:43:12;;;;;;;27.45;21.15;;;6.30;99.90;;;;;;5027335;28;20053;-76
2022/01/22 11:45:45;;;;;;;30.77;21.80;;;6.30;99.90;;;;;;5042853;28;20763;-76
2022/01/22 11:48:15;;;;;;;28.27;21.00;;;6.30;99.90;;;;;;5028287;28;20041;-76
2022/01/22 11:50:46;;;;;;;26.40;20.20;;;6.30;99.90;;;;;;5011381;28;20050;-75
2022/01/22 11:53:29;;;;;;;26.02;20.50;;;6.40;99.90;;;;;;5027318;28;20052;-75
2022/01/22 11:56:10;;;;;;;25.45;19.90;;;6.40;99.90;;;;;;5026611;28;20053;-75
2022/01/22 11:58:59;;;;;;;25.27;19.83;;;6.40;99.90;;;;;;5044385;28;20436;-75
2022/01/22 12:01:50;;;;;;;32.50;21.10;;;6.40;99.90;;;;;;5045952;28;20401;-76
2022/01/22 12:04:24;;;;;;;26.77;20.42;;;6.40;99.90;;;;;;5046585;28;20367;-75
2022/01/22 12:07:01;;;;;;;24.52;19.70;;;6.40;99.90;;;;;;5061191;28;20612;-76
2022/01/22 12:15:23;;;;;;;23.50;19.05;;;6.50;99.90;;;;;;5040268;28;20049;-75
2022/01/22 12:17:54;;;;;;;33.08;18.55;;;6.50;99.90;;;;;;5048651;28;20763;-75
2022/01/22 12:23:39;;;;;;;20.42;15.90;;;6.60;99.90;;;;;;5063495;28;20052;-76
2022/01/22 12:26:07;;;;;;;20.75;17.48;;;6.60;99.90;;;;;;5047981;28;20052;-75
2022/01/22 12:28:41;;;;;;;25.25;17.23;;;6.60;99.90;;;;;;5062098;28;20045;-75
2022/01/22 12:31:15;;;;;;;22.70;16.50;;;6.60;99.90;;;;;;5063079;28;20057;-75
2022/01/22 12:33:49;;;;;;;20.33;16.63;;;6.60;99.90;;;;;;5046660;28;20485;-75
2022/01/22 12:36:22;;;;;;;20.92;15.85;;;6.60;99.90;;;;;;5047107;28;20048;-75
2022/01/22 12:39:09;;;;;;;18.58;14.63;;;6.60;99.90;;;;;;5062058;28;20236;-74
2022/01/22 12:47:00;;;;;;;18.42;13.60;;;6.70;99.90;;;;;;5042009;28;20602;-76
2022/01/22 12:49:29;;;;;;;15.63;11.77;;;6.80;99.90;;;;;;5044534;28;20056;-75
2022/01/22 12:51:59;;;;;;;15.13;11.65;;;6.80;99.90;;;;;;5019439;28;20045;-75
2022/01/22 12:54:35;;;;;;;16.80;11.20;;;6.80;99.90;;;;;;5038214;28;20059;-75
2022/01/22 12:57:09;;;;;;;12.40;10.02;;;6.80;99.90;;;;;;5042511;28;20048;-75
2022/01/22 13:00:12;;;;;;;13.05;10.95;;;6.80;99.90;;;;;;5047756;28;20079;-75
2022/01/22 13:02:45;;;;;;;17.75;10.60;;;6.80;99.90;;;;;;5044600;28;20057;-76
2022/01/22 13:05:16;;;;;;;13.50;10.43;;;6.80;99.90;;;;;;5036928;28;20045;-76
2022/01/22 13:08:07;;;;;;;15.57;9.75;;;6.80;99.90;;;;;;5039916;28;20574;-76
2022/01/22 13:11:08;;;;;;;12.30;10.20;;;6.80;99.90;;;;;;5027010;28;20044;-76
2022/01/22 13:13:40;;;;;;;13.15;10.05;;;6.80;99.90;;;;;;5046254;28;20048;-75
2022/01/22 13:16:11;;;;;;;12.52;10.38;;;6.80;99.90;;;;;;5043701;28;20053;-76
2022/01/22 13:19:00;;;;;;;15.95;11.27;;;6.80;99.90;;;;;;5043786;28;20045;-76
2022/01/22 13:21:30;;;;;;;15.63;10.80;;;6.80;99.90;;;;;;5047764;28;20119;-76
2022/01/22 13:24:10;;;;;;;15.38;10.88;;;6.80;99.90;;;;;;5045425;28;20048;-75
2022/01/22 13:26:44;;;;;;;18.80;10.48;;;6.90;99.90;;;;;;5045489;28;20417;-75
2022/01/22 13:29:22;;;;;;;16.88;10.45;;;6.80;99.90;;;;;;5040571;28;20068;-76
2022/01/22 13:31:57;;;;;;;;;;;6.90;99.90;;;;;;5025798;28;20423;-75
2022/01/22 13:34:49;;;;;;;13.70;10.35;;;6.80;99.90;;;;;;5044412;28;19926;-75
2022/01/22 13:48:32;;;;;;;16.90;10.05;;;6.70;99.90;;;;;;5037186;28;20490;-77
2022/01/22 13:51:01;;;;;;;14.43;10.95;;;6.80;99.90;;;;;;5042992;28;20395;-77
2022/01/22 13:53:29;;;;;;;13.63;10.00;;;6.70;99.90;;;;;;5045097;28;20416;-77
2022/01/22 13:56:07;;;;;;;17.20;9.82;;;6.70;99.90;;;;;;5030853;28;20052;-77
2022/01/22 13:58:36;;;;;;;15.60;10.05;;;6.70;99.90;;;;;;5050848;28;20065;-77
2022/01/22 14:01:49;;;;;;;13.40;10.57;;;6.70;99.90;;;;;;5053103;28;20052;-77
2022/01/22 14:04:18;;;;;;;20.75;11.57;;;6.70;99.90;;;;;;5050630;28;20241;-77
2022/01/22 14:06:46;;;;;;;16.73;11.38;;;6.70;99.90;;;;;;5040438;28;20041;-77
2022/01/22 14:09:15;;;;;;;;;;;6.70;99.90;;;;;;5022936;28;20045;-77
2022/01/22 14:12:03;;;;;;;15.32;10.25;;;6.70;99.90;;;;;;5016262;28;19924;-76
2022/01/22 14:14:55;;;;;;;16.42;11.25;;;6.70;99.90;;;;;;5047485;28;20049;-77
2022/01/22 14:17:31;;;;;;;21.30;11.68;;;6.70;99.90;;;;;;5043938;28;20512;-77
2022/01/22 14:20:11;;;;;;;19.63;12.27;;;6.70;99.90;;;;;;5040152;28;20053;-77
2022/01/22 14:22:55;;;;;;;17.88;12.63;;;6.70;99.90;;;;;;5044736;28;20516;-77
2022/01/22 14:25:24;;;;;;;23.08;13.88;;;6.70;99.90;;;;;;5047768;28;20041;-74
2022/01/22 14:28:11;;;;;;;21.17;14.20;;;6.60;99.90;;;;;;5042282;28;20041;-77
2022/01/22 14:30:45;;;;;;;25.80;15.13;;;6.60;99.90;;;;;;5047203;28;20382;-77
2022/01/22 14:33:17;;;;;;;21.88;15.48;;;6.60;99.90;;;;;;5046131;28;20064;-76
2022/01/22 14:36:02;;;;;;;23.60;16.10;;;6.50;99.90;;;;;;5042860;28;20048;-76
2022/01/22 14:38:42;;;;;;;23.27;16.63;;;6.50;99.90;;;;;;5048797;28;20056;-76
2022/01/22 14:46:57;;;;;;;24.10;15.77;;;6.50;99.90;;;;;;5034953;28;20496;-76
2022/01/22 14:49:38;;;;;;;23.52;16.20;;;6.50;99.90;;;;;;5045323;28;20041;-76
2022/01/22 14:52:08;;;;;;;24.85;16.02;;;6.50;99.90;;;;;;5047836;28;20707;-76
2022/01/22 14:54:39;;;;;;;25.80;15.73;;;6.40;99.90;;;;;;5027944;28;20056;-76
2022/01/22 14:57:13;;;;;;;24.90;15.90;;;6.40;99.90;;;;;;5042945;28;20041;-75
2022/01/22 14:59:42;;;;;;;24.10;16.55;;;6.40;99.90;;;;;;5046535;28;20052;-74
2022/01/22 15:02:12;;;;;;;23.95;16.58;;;6.30;99.90;;;;;;5043269;28;20066;-75
2022/01/22 15:04:40;;;;;;;32.33;19.20;;;6.40;99.90;;;;;;5045587;28;20053;-75
2022/01/22 15:07:11;;;;;;;25.48;18.20;;;6.30;99.90;;;;;;5045477;28;20040;-74
2022/01/22 15:09:41;;;;;;;25.73;18.20;;;6.30;99.90;;;;;;5050704;28;20049;-75
2022/01/22 15:12:09;;;;;;;29.25;19.35;;;6.20;99.90;;;;;;5048139;28;20041;-77
2022/01/22 15:14:40;;;;;;;25.35;18.75;;;6.20;99.90;;;;;;5046560;28;20120;-76
2022/01/22 15:19:37;;;;;;;30.65;18.42;;;6.20;99.90;;;;;;5030537;28;20614;-76
2022/01/22 15:22:08;;;;;;;23.58;16.38;;;6.30;99.90;;;;;;5046351;28;20075;-76